Accueil
METAR-TAF:

METAR-TAF

Aéroports :

Aéroport de Deauville-Normandie

Deauville, France

latitude: 49-21-55N, longitude: 000-09-16E, altitude: 146 m

Observation

Le bulletin a été fait il y a 29 minutes, à 16:30 UTC
Vent 10 kt de nord-est, variant entre nord et est
Température 5°C
Humidité 60%
Pression 1028 hPa
Visibilité 10 km ou plus
Nuages fragmentés à une hauteur de 4000 ft

METAR: LFRG 051630Z AUTO 04010KT 010V080 9999 BKN040 05/M02 Q1028 NOSIG

Heure: 17:59 (16:59 UTC)

Prévision

Le bulletin a été fait il y a 2 heures et 59 minutes, à 14:00 UTC
Prévision valable du 05 à 15 UTC au 05 à 24 UTC
Vent 10 kt de nord-est
Visibilité 10 km ou plus
Nuages fragmentés à une hauteur de 3500 ft

TAF: LFRG 051400Z 0515/0524 05010KT 9999 BKN035

Observations et prévisions météorologiques de plus de 4000 aéroports (messages METAR et TAF).

Les stations disponibles sont représentées par des disques jaunes et rouges sur la carte.

Passer la souris dessus pour voir le nom de la station.

Cliquer dessus pour voir les observations et prévisions météorologiques.

Pour changer de carte: cliquez sur les boutons verts avec une croix noire pour zoomer, sur le bouton vert avec un tiret pour effectuer un zoom arrière, ou sur les flèches vertes pour les cartes adjacentes.


METAR-TAF: